Time;durP1;ratioP1;P1;durP2;ratioP2;P2;SDS_P1;SDS_P2;PMS_P1;PMS_P2;Temp;Humidity;BMP_temperature;BMP_pressure;BME280_temperature;BME280_humidity;BME280_pressure;Samples;Min_cycle;Max_cycle;Signal;HPM_P1;HPM_P2
2023/01/13 00:00:17;;;;;;;;;;;9.40;99.90;;;;;;5086483;28;20360;-65
2023/01/13 00:02:45;;;;;;;;;;;9.40;99.90;;;;;;5088670;28;19932;-66
2023/01/13 00:05:14;;;;;;;;;;;9.40;99.90;;;;;;5083929;28;20385;-66
2023/01/13 00:07:42;;;;;;;;;;;9.40;99.90;;;;;;5092793;28;19928;-66
2023/01/13 00:10:10;;;;;;;;;;;9.40;99.90;;;;;;5092418;28;19931;-66
2023/01/13 00:12:40;;;;;;;;;;;9.40;99.90;;;;;;5096158;28;19928;-66
2023/01/13 00:15:09;;;;;;;;;;;9.40;99.90;;;;;;5097076;28;19928;-66
2023/01/13 00:17:37;;;;;;;;;;;9.40;99.90;;;;;;5093134;28;19927;-65
2023/01/13 00:20:06;;;;;;;;;;;9.40;99.90;;;;;;5090133;28;19924;-66
2023/01/13 00:22:34;;;;;;;;;;;9.40;99.90;;;;;;5183936;22;20392;-66
2023/01/13 00:25:03;;;;;;;;;;;9.40;99.90;;;;;;5089200;28;20014;-67
2023/01/13 00:27:31;;;;;;;;;;;9.40;99.90;;;;;;5085822;28;19935;-65
2023/01/13 00:30:00;;;;;;;;;;;9.40;99.90;;;;;;5083973;28;19928;-65
2023/01/13 00:32:28;;;;;;;;;;;9.40;99.90;;;;;;5086993;28;19947;-65
2023/01/13 00:34:56;;;;;;;;;;;9.40;99.90;;;;;;5084919;28;19924;-65
2023/01/13 00:37:24;;;;;;;;;;;9.40;99.90;;;;;;5081944;28;19932;-65
2023/01/13 00:39:52;;;;;;;;;;;9.50;99.90;;;;;;5080664;28;19935;-65
2023/01/13 00:45:06;;;;;;;;;;;9.50;99.90;;;;;;5084305;28;19925;-65
2023/01/13 00:47:34;;;;;;;;;;;9.50;99.90;;;;;;5080693;28;20026;-65
2023/01/13 00:50:02;;;;;;;;;;;9.50;99.90;;;;;;5077096;28;20438;-65
2023/01/13 00:52:31;;;;;;;;;;;9.50;99.90;;;;;;5086992;28;19928;-65
2023/01/13 00:54:59;;;;;;;;;;;9.50;99.90;;;;;;5085511;28;19928;-64
2023/01/13 00:57:27;;;;;;;;;;;9.50;99.90;;;;;;5091870;28;19967;-64
2023/01/13 00:59:55;;;;;;;;;;;9.50;99.90;;;;;;5082208;28;19929;-64
2023/01/13 01:02:24;;;;;;;;;;;9.40;99.90;;;;;;5085035;28;19931;-64
2023/01/13 01:04:52;;;;;;;;;;;9.40;99.90;;;;;;5075695;28;19928;-66
2023/01/13 01:07:20;;;;;;;;;;;9.40;99.90;;;;;;5081450;28;20019;-63
2023/01/13 01:09:49;;;;;;;;;;;9.40;99.90;;;;;;5086629;28;19928;-63
2023/01/13 01:12:17;;;;;;;;;;;9.40;99.90;;;;;;5094892;28;19931;-65
2023/01/13 01:14:44;;;;;;;;;;;9.40;99.90;;;;;;5086217;28;20332;-66
2023/01/13 01:17:12;;;;;;;;;;;9.50;99.90;;;;;;5081673;28;19930;-65
2023/01/13 01:19:41;;;;;;;;;;;9.40;99.90;;;;;;5073165;28;20286;-65
2023/01/13 01:22:09;;;;;;;;;;;9.40;99.90;;;;;;5078895;28;19924;-65
2023/01/13 01:24:37;;;;;;;;;;;9.40;99.90;;;;;;5078428;28;19935;-65
2023/01/13 01:27:05;;;;;;;;;;;9.40;99.90;;;;;;5081986;28;19931;-66
2023/01/13 01:29:33;;;;;;;;;;;9.40;99.90;;;;;;5084911;28;19932;-64
2023/01/13 01:32:00;;;;;;;;;;;9.40;99.90;;;;;;5079988;28;19931;-65
2023/01/13 01:34:28;;;;;;;;;;;9.40;99.90;;;;;;5087078;28;20381;-65
2023/01/13 01:36:58;;;;;;;;;;;9.40;99.90;;;;;;5079215;28;19928;-65
2023/01/13 01:39:25;;;;;;;;;;;9.40;99.90;;;;;;5079338;28;20392;-65
2023/01/13 01:44:58;;;;;;;;;;;9.40;99.90;;;;;;5077512;28;19924;-68
2023/01/13 01:47:27;;;;;;;;;;;9.50;99.90;;;;;;5079891;28;20469;-66
2023/01/13 01:49:56;;;;;;;;;;;9.50;99.90;;;;;;5076444;28;19946;-67
2023/01/13 01:52:28;;;;;;;;;;;9.50;99.90;;;;;;5086357;28;19928;-65
2023/01/13 01:54:59;;;;;;;;;;;9.50;99.90;;;;;;5073713;28;19932;-66
2023/01/13 01:57:28;;;;;;;;;;;9.50;99.90;;;;;;5081606;28;19931;-65
2023/01/13 01:59:56;;;;;;;;;;;9.50;99.90;;;;;;5079566;28;19925;-67
2023/01/13 02:02:24;;;;;;;;;;;9.60;99.90;;;;;;5082220;28;19928;-66
2023/01/13 02:04:53;;;;;;;;;;;9.60;99.90;;;;;;5083284;28;19976;-66
2023/01/13 02:07:23;;;;;;;;;;;9.60;99.90;;;;;;5085881;28;20456;-66
2023/01/13 02:09:53;;;;;;;;;;;9.60;99.90;;;;;;5083871;28;19932;-65
2023/01/13 02:12:31;;;;;;;;;;;9.60;99.90;;;;;;5080285;28;20408;-65
2023/01/13 02:15:00;;;;;;;;;;;9.60;99.90;;;;;;5076172;28;19947;-65
2023/01/13 02:17:36;;;;;;;;;;;9.60;99.90;;;;;;5080360;28;20411;-66
2023/01/13 02:20:25;;;;;;;;;;;9.60;99.90;;;;;;5072589;28;19925;-65
2023/01/13 02:23:06;;;;;;;;;;;9.70;99.90;;;;;;5087473;28;19943;-65
2023/01/13 02:25:43;;;;;;;;;;;9.70;99.90;;;;;;5083220;28;19943;-66
2023/01/13 02:28:16;;;;;;;;;;;9.70;99.90;;;;;;5078880;28;19924;-65
2023/01/13 02:33:43;;;;;;;;;;;9.70;99.90;;;;;;5085994;28;19938;-65
2023/01/13 02:36:15;;;;;;;;;;;9.70;99.90;;;;;;5079963;28;19924;-64
2023/01/13 02:38:48;;;;;;;;;;;9.70;99.90;;;;;;5083627;28;20444;-67
2023/01/13 02:44:07;;;;;;;;;;;9.70;99.90;;;;;;5083115;28;19939;-64
2023/01/13 02:46:39;;;;;;;;;;;9.70;99.90;;;;;;5088424;28;19924;-65
2023/01/13 02:49:10;;;;;;;;;;;9.70;99.90;;;;;;5081378;28;20011;-66
2023/01/13 02:51:38;;;;;;;;;;;9.60;99.90;;;;;;5069375;28;19930;-65
2023/01/13 02:54:08;;;;;;;;;;;9.60;99.90;;;;;;5081809;28;19924;-65
2023/01/13 02:56:39;;;;;;;;;;;9.70;99.90;;;;;;5085958;28;19924;-65
2023/01/13 02:59:07;;;;;;;;;;;9.60;99.90;;;;;;5092703;28;20308;-66
2023/01/13 03:01:36;;;;;;;;;;;9.70;99.90;;;;;;5085430;28;19924;-65
2023/01/13 03:04:10;;;;;;;;;;;9.70;99.90;;;;;;5080072;28;20019;-68
2023/01/13 03:06:42;;;;;;;;;;;9.70;99.90;;;;;;5085164;28;20003;-66
2023/01/13 03:09:15;;;;;;;;;;;9.60;99.90;;;;;;5084398;28;19924;-65
2023/01/13 03:11:45;;;;;;;;;;;9.70;99.90;;;;;;5080034;28;19924;-65
2023/01/13 03:14:22;;;;;;;;;;;9.70;99.90;;;;;;5078984;28;20286;-66
2023/01/13 03:16:58;;;;;;;;;;;9.70;99.90;;;;;;5077204;28;19924;-65
2023/01/13 03:19:30;;;;;;;;;;;9.70;99.90;;;;;;5077061;28;19925;-65
2023/01/13 03:21:59;;;;;;;;;;;9.70;99.90;;;;;;5080584;28;19924;-65
2023/01/13 03:24:30;;;;;;;;;;;9.70;99.90;;;;;;5085222;28;19928;-65
2023/01/13 03:27:01;;;;;;;;;;;9.70;99.90;;;;;;5087766;28;19924;-66
2023/01/13 03:29:33;;;;;;;;;;;9.70;99.90;;;;;;5083427;28;20014;-65
2023/01/13 03:32:04;;;;;;;;;;;9.70;99.90;;;;;;5086040;28;20016;-64
2023/01/13 03:34:34;;;;;;;;;;;9.70;99.90;;;;;;5087150;28;19924;-65
2023/01/13 03:37:05;;;;;;;;;;;9.70;99.90;;;;;;5078793;28;20007;-65
2023/01/13 03:39:35;;;;;;;;;;;9.60;99.90;;;;;;5081387;28;20289;-65
2023/01/13 03:42:06;;;;;;;;;;;9.60;99.90;;;;;;5080968;28;20463;-65
2023/01/13 03:44:36;;;;;;;;;;;9.60;99.90;;;;;;5086525;28;19993;-65
2023/01/13 03:47:10;;;;;;;;;;;9.70;99.90;;;;;;5079571;28;19931;-65
2023/01/13 03:49:40;;;;;;;;;;;9.70;99.90;;;;;;5087828;28;19947;-65
2023/01/13 03:52:10;;;;;;;;;;;9.70;99.90;;;;;;5082274;28;20023;-65
2023/01/13 03:54:42;;;;;;;;;;;9.70;99.90;;;;;;5081414;28;20023;-66
2023/01/13 03:57:12;;;;;;;;;;;9.70;99.90;;;;;;5083790;28;20022;-65
2023/01/13 03:59:41;;;;;;;;;;;9.80;99.90;;;;;;5084987;28;19946;-65
2023/01/13 04:02:12;;;;;;;;;;;9.80;99.90;;;;;;5085096;28;20448;-65
2023/01/13 04:04:42;;;;;;;;;;;9.90;99.90;;;;;;5080761;28;19932;-65
2023/01/13 04:07:15;;;;;;;;;;;9.90;99.90;;;;;;5091784;28;20026;-64
2023/01/13 04:09:48;;;;;;;;;;;9.90;99.90;;;;;;5071985;28;20015;-64
2023/01/13 04:12:17;;;;;;;;;;;9.90;99.90;;;;;;5084916;28;20024;-65
2023/01/13 04:14:46;;;;;;;;;;;10.00;99.90;;;;;;5081822;28;19963;-65
2023/01/13 04:17:15;;;;;;;;;;;9.90;99.90;;;;;;5078509;28;20019;-66
2023/01/13 04:19:43;;;;;;;;;;;10.00;99.90;;;;;;5082883;28;19936;-64
2023/01/13 04:22:10;;;;;;;;;;;10.00;99.90;;;;;;5085176;28;20011;-65
2023/01/13 04:24:38;;;;;;;;;;;10.00;99.90;;;;;;5080977;28;20313;-65
2023/01/13 04:27:06;;;;;;;;;;;10.00;99.90;;;;;;5082937;28;21495;-65
2023/01/13 04:29:34;;;;;;;;;;;10.00;99.90;;;;;;5080551;28;20508;-66
2023/01/13 04:32:02;;;;;;;;;;;10.00;99.90;;;;;;5078131;28;19930;-64
2023/01/13 04:34:31;;;;;;;;;;;9.90;99.90;;;;;;5073228;28;19928;-65
2023/01/13 04:36:59;;;;;;;;;;;9.90;99.90;;;;;;5079910;28;19939;-66
2023/01/13 04:39:26;;;;;;;;;;;9.90;99.90;;;;;;5078745;28;20467;-65
2023/01/13 04:42:01;;;;;;;;;;;9.90;99.90;;;;;;5082450;28;20465;-66
2023/01/13 04:44:33;;;;;;;;;;;9.90;99.90;;;;;;5083545;28;19924;-64
2023/01/13 04:47:02;;;;;;;;;;;9.90;99.90;;;;;;5080755;28;19930;-65
2023/01/13 04:49:32;;;;;;;;;;;9.90;99.90;;;;;;5075762;28;20016;-65
2023/01/13 04:52:01;;;;;;;;;;;9.90;99.90;;;;;;5085435;28;19932;-64
2023/01/13 04:54:28;;;;;;;;;;;9.90;99.90;;;;;;5086080;28;20386;-64
2023/01/13 04:56:56;;;;;;;;;;;9.90;99.90;;;;;;5092025;28;20023;-65
2023/01/13 04:59:24;;;;;;;;;;;9.90;99.90;;;;;;5092288;28;20035;-64
2023/01/13 05:01:51;;;;;;;;;;;9.90;99.90;;;;;;5083219;28;19944;-65
2023/01/13 05:04:19;;;;;;;;;;;9.80;99.90;;;;;;5084651;28;19973;-64
2023/01/13 05:06:48;;;;;;;;;;;9.80;99.90;;;;;;5080303;28;20015;-65
2023/01/13 05:09:16;;;;;;;;;;;9.80;99.90;;;;;;5078813;28;19924;-64
2023/01/13 05:17:18;;;;;;;;;;;9.70;99.90;;;;;;5077335;28;20031;-65
2023/01/13 05:19:46;;;;;;;;;;;9.70;99.90;;;;;;5084242;28;20380;-65
2023/01/13 05:27:45;;;;;;;;;;;9.40;99.90;;;;;;5076280;28;19928;-65
2023/01/13 05:30:13;;;;;;;;;;;9.50;99.90;;;;;;5073971;28;20011;-66
2023/01/13 05:32:41;;;;;;;;;;;9.40;99.90;;;;;;5085905;28;20402;-64
2023/01/13 05:35:09;;;;;;;;;;;9.40;99.90;;;;;;5086114;28;20273;-65
2023/01/13 05:37:38;;;;;;;;;;;9.30;99.90;;;;;;5086177;28;19970;-65
2023/01/13 05:45:45;;;;;;;;;;;9.30;99.90;;;;;;5071803;28;20063;-65
2023/01/13 05:48:13;;;;;;;;;;;9.20;99.90;;;;;;5071544;28;19935;-65
2023/01/13 05:50:40;;;;;;;;;;;9.20;99.90;;;;;;5070420;28;19982;-64
2023/01/13 05:53:10;;;;;;;;;;;9.10;99.90;;;;;;5075930;28;20407;-65
2023/01/13 05:55:38;;;;;;;;;;;9.20;99.90;;;;;;5086518;28;20089;-65
2023/01/13 05:58:06;;;;;;;;;;;9.20;99.90;;;;;;5086781;28;20014;-65
2023/01/13 06:00:34;;;;;;;;;;;9.20;99.90;;;;;;5075773;28;19924;-67
2023/01/13 06:03:02;;;;;;;;;;;9.30;99.90;;;;;;5085590;28;19932;-65
2023/01/13 06:05:30;;;;;;;;;;;9.20;99.90;;;;;;5084863;28;19924;-66
2023/01/13 06:07:58;;;;;;;;;;;9.10;99.90;;;;;;5082706;28;19933;-66
2023/01/13 06:10:28;;;;;;;;;;;9.10;99.90;;;;;;5076638;28;20036;-65
2023/01/13 06:12:56;;;;;;;;;;;9.00;99.90;;;;;;5088077;28;19968;-66
2023/01/13 06:15:24;;;;;;;;;;;8.90;99.90;;;;;;5087936;28;19930;-66
2023/01/13 06:17:52;;;;;;;;;;;8.90;99.90;;;;;;5083902;28;20374;-67
2023/01/13 06:20:20;;;;;;;;;;;8.90;99.90;;;;;;5075698;28;20445;-66
2023/01/13 06:22:48;;;;;;;;;;;8.90;99.90;;;;;;5081846;28;20364;-66
2023/01/13 06:25:22;;;;;;;;;;;8.90;99.90;;;;;;5100020;22;20011;-63
2023/01/13 06:27:51;;;;;;;;;;;8.90;99.90;;;;;;5114305;28;20014;-62
2023/01/13 06:30:19;;;;;;;;;;;8.80;99.90;;;;;;5107223;28;19924;-62
2023/01/13 06:32:49;;;;;;;;;;;8.80;99.90;;;;;;5111994;28;20006;-61
2023/01/13 06:35:18;;;;;;;;;;;8.70;99.90;;;;;;5109355;28;20340;-62
2023/01/13 06:37:49;;;;;;;;;;;8.80;99.90;;;;;;5111554;28;19934;-62
2023/01/13 06:40:17;;;;;;;;;;;8.90;99.90;;;;;;5109529;28;20022;-62
2023/01/13 06:45:31;;;;;;;;;;;9.00;99.90;;;;;;5109495;28;20406;-63
2023/01/13 06:47:59;;;;;;;;;;;9.00;99.90;;;;;;5112914;28;19929;-63
2023/01/13 06:50:27;;;;;;;;;;;9.00;99.90;;;;;;5110205;28;20019;-62
2023/01/13 06:52:55;;;;;;;;;;;9.00;99.90;;;;;;5109249;28;19924;-61
2023/01/13 06:55:23;;;;;;;;;;;9.00;99.90;;;;;;5109902;28;19930;-62
2023/01/13 06:57:52;;;;;;;;;;;8.90;99.90;;;;;;5110148;28;19975;-62
2023/01/13 07:00:20;;;;;;;;;;;8.80;99.90;;;;;;5109073;28;19928;-63
2023/01/13 07:02:49;;;;;;;;;;;8.70;99.90;;;;;;5111082;28;19928;-62
2023/01/13 07:05:18;;;;;;;;;;;8.60;99.90;;;;;;5111941;28;20354;-62
2023/01/13 07:07:46;;;;;;;;;;;8.70;99.90;;;;;;5112724;28;19932;-62
2023/01/13 07:10:20;;;;;;;;;;;8.60;99.90;;;;;;5112397;28;19924;-63
2023/01/13 07:15:35;;;;;;;;;;;8.60;99.90;;;;;;5111460;28;20011;-63
2023/01/13 07:18:04;;;;;;;;;;;8.60;99.90;;;;;;5110178;28;19924;-63
2023/01/13 07:20:32;;;;;;;;;;;8.70;99.90;;;;;;5111163;28;19923;-64
2023/01/13 07:23:00;;;;;;;;;;;8.60;99.90;;;;;;5110829;28;20011;-64
2023/01/13 07:25:28;;;;;;;;;;;8.40;99.90;;;;;;5115627;27;19924;-64
2023/01/13 07:27:57;;;;;;;;;;;8.40;99.90;;;;;;5120518;27;20350;-63
2023/01/13 07:30:24;;;;;;;;;;;8.30;99.90;;;;;;5113811;28;19924;-64
2023/01/13 07:32:52;;;;;;;;;;;8.30;99.90;;;;;;5113924;28;20026;-63
2023/01/13 07:35:22;;;;;;;;;;;8.30;99.90;;;;;;5114121;28;19928;-63
2023/01/13 07:37:50;;;;;;;;;;;8.20;99.90;;;;;;5114195;28;20030;-63
2023/01/13 07:40:17;;;;;;;;;;;8.10;99.90;;;;;;5113836;28;19963;-63
2023/01/13 07:45:30;;;;;;;;;;;8.00;99.90;;;;;;5114099;28;19977;-64
2023/01/13 07:47:58;;;;;;;;;;;8.00;99.90;;;;;;5113800;28;19923;-63
2023/01/13 07:50:27;;;;;;;;;;;7.90;99.90;;;;;;5113399;28;19923;-63
2023/01/13 07:52:57;;;;;;;;;;;7.90;99.90;;;;;;5113800;28;19934;-64
2023/01/13 07:55:25;;;;;;;;;;;7.90;99.90;;;;;;5121838;27;20030;-64
2023/01/13 07:57:52;;;;;;;;;;;7.90;99.90;;;;;;5127818;27;19930;-63
2023/01/13 08:00:20;;;;;;;;;;;7.90;99.90;;;;;;5133479;27;19930;-64
2023/01/13 08:02:48;;;;;;;;;;;7.90;99.90;;;;;;5133718;27;19924;-64
2023/01/13 08:05:16;;;;;;;;;;;7.80;99.90;;;;;;5134017;27;19924;-64
2023/01/13 08:07:45;;;;;;;;;;;7.90;99.90;;;;;;5134044;27;20010;-64
2023/01/13 08:10:13;;;;;;;;;;;7.90;99.90;;;;;;5133060;27;19924;-62
2023/01/13 08:15:28;;;;;;;;;;;7.90;99.90;;;;;;5133664;27;19930;-63
2023/01/13 08:17:56;;;;;;;;;;;8.00;99.90;;;;;;5133444;27;19970;-64
2023/01/13 08:20:23;;;;;;;;;;;8.00;99.90;;;;;;5132877;27;19927;-63
2023/01/13 08:22:55;;;;;;;;;;;8.00;99.90;;;;;;5133173;27;19962;-64
2023/01/13 08:25:23;;;;;;;;;;;8.00;99.90;;;;;;5130645;27;19956;-62
2023/01/13 08:27:51;;;;;;;;;;;8.10;99.90;;;;;;5126652;27;20014;-64
2023/01/13 08:30:18;;;;;;;;;;;8.10;99.90;;;;;;5132645;27;20018;-63
2023/01/13 08:32:46;;;;;;;;;;;8.00;99.90;;;;;;5133571;27;20015;-64
2023/01/13 08:35:15;;;;;;;;;;;8.10;99.90;;;;;;5133287;27;19924;-64
2023/01/13 08:37:42;;;;;;;;;;;8.10;99.90;;;;;;5133296;27;20476;-63
2023/01/13 08:40:13;;;;;;;;;;;8.10;99.90;;;;;;5132332;27;20479;-64
2023/01/13 08:42:41;;;;;;;;;;;8.10;99.90;;;;;;5133427;27;19937;-64
2023/01/13 08:45:09;;;;;;;;;;;8.10;99.90;;;;;;5133074;27;19923;-64
2023/01/13 08:47:37;;;;;;;;;;;8.10;99.90;;;;;;5132999;27;20017;-63
2023/01/13 08:50:06;;;;;;;;;;;8.10;99.90;;;;;;5132919;27;19930;-64
2023/01/13 08:52:33;;;;;;;;;;;8.10;99.90;;;;;;5133133;27;19924;-64
2023/01/13 08:55:01;;;;;;;;;;;8.20;99.90;;;;;;5131315;27;19933;-64
2023/01/13 08:57:30;;;;;;;;;;;8.20;99.90;;;;;;5124566;27;20026;-64
2023/01/13 08:59:58;;;;;;;;;;;8.20;99.90;;;;;;5132335;27;19931;-64
2023/01/13 09:02:25;;;;;;;;;;;8.20;99.90;;;;;;5132935;27;20027;-64
2023/01/13 09:04:54;;;;;;;;;;;8.20;99.90;;;;;;5132895;27;19930;-64
2023/01/13 09:07:22;;;;;;;;;;;8.30;99.90;;;;;;5132532;27;20034;-64
2023/01/13 09:09:50;;;;;;;;;;;8.30;99.90;;;;;;5132108;27;19924;-64
2023/01/13 09:15:05;;;;;;;;;;;8.90;99.90;;;;;;5132808;27;19941;-64
2023/01/13 09:17:33;;;;;;;;;;;9.50;99.90;;;;;;5132644;27;19997;-64
2023/01/13 09:20:00;;;;;;;;;;;10.00;99.90;;;;;;5132027;27;19929;-64
2023/01/13 09:22:28;;;;;;;;;;;10.40;99.90;;;;;;5132473;27;19995;-64
2023/01/13 09:24:56;;;;;;;;;;;10.80;99.90;;;;;;5130877;27;19923;-64
2023/01/13 09:27:23;;;;;;;;;;;11.00;99.90;;;;;;5124026;27;20018;-64
2023/01/13 09:29:51;;;;;;;;;;;11.20;99.90;;;;;;5132088;27;19924;-63
2023/01/13 09:32:20;;;;;;;;;;;11.20;99.90;;;;;;5132840;27;19923;-64
2023/01/13 09:34:59;;;;;;;;;;;11.00;99.90;;;;;;5131748;27;20463;-64
2023/01/13 09:37:27;;;;;;;;;;;11.10;99.90;;;;;;5132707;28;19923;-63
2023/01/13 09:39:55;;;;;;;;;;;11.30;99.90;;;;;;5131757;28;20394;-64
2023/01/13 09:45:15;;;;;;;;;;;11.70;99.90;;;;;;5132518;28;19966;-64
2023/01/13 09:47:50;;;;;;;;;;;12.00;99.90;;;;;;5132147;28;20382;-64
2023/01/13 09:50:23;;;;;;;;;;;12.20;99.90;;;;;;5131775;28;20010;-64
2023/01/13 09:52:51;;;;;;;;;;;12.20;99.90;;;;;;5132970;28;20287;-64
2023/01/13 09:55:22;;;;;;;;;;;12.20;99.90;;;;;;5129437;28;20374;-64
2023/01/13 09:57:50;;;;;;;;;;;11.90;99.90;;;;;;5125263;28;20402;-65
2023/01/13 10:00:20;;;;;;;;;;;11.50;99.90;;;;;;5131396;28;20026;-63
2023/01/13 10:03:03;;;;;;;;;;;11.10;99.90;;;;;;5132167;28;19923;-64
2023/01/13 10:05:34;;;;;;;;;;;10.90;99.90;;;;;;5132137;28;19923;-64
2023/01/13 10:08:04;;;;;;;;;;;11.10;99.90;;;;;;5131963;28;20116;-63
2023/01/13 10:10:34;;;;;;;;;;;11.30;99.90;;;;;;5131553;28;20010;-64
2023/01/13 10:13:13;;;;;;;;;;;11.60;99.90;;;;;;5132228;28;20022;-64
2023/01/13 10:15:44;;;;;;;;;;;11.90;99.90;;;;;;5132085;28;19927;-63
2023/01/13 10:18:15;;;;;;;;;;;12.10;99.90;;;;;;5131741;28;19949;-64
2023/01/13 10:20:48;;;;;;;;;;;12.30;99.90;;;;;;5131636;28;19959;-64
2023/01/13 10:23:33;;;;;;;;;;;12.60;99.90;;;;;;5132152;28;19924;-64
2023/01/13 10:26:05;;;;;;;;;;;12.60;99.90;;;;;;5123525;28;20437;-64
2023/01/13 10:28:32;;;;;;;;;;;12.40;99.90;;;;;;5131029;28;20316;-64
2023/01/13 10:31:01;;;;;;;;;;;12.20;99.90;;;;;;5131312;28;19931;-65
2023/01/13 10:33:30;;;;;;;;;;;11.80;99.90;;;;;;5132033;28;20028;-64
2023/01/13 10:35:59;;;;;;;;;;;11.50;99.90;;;;;;5132136;28;19931;-63
2023/01/13 10:38:28;;;;;;;;;;;11.10;99.90;;;;;;5131695;28;19923;-64
2023/01/13 10:40:57;;;;;;;;;;;10.90;99.90;;;;;;5130992;28;19935;-64
2023/01/13 10:43:25;;;;;;;;;;;10.90;99.90;;;;;;5131889;28;20022;-64
2023/01/13 10:45:56;;;;;;;;;;;10.90;99.90;;;;;;5132780;27;20014;-64
2023/01/13 10:48:31;;;;;;;;;;;10.80;99.90;;;;;;5135350;27;19954;-65
2023/01/13 10:51:09;;;;;;;;;;;10.70;99.90;;;;;;5134912;27;20064;-64
2023/01/13 10:53:44;;;;;;;;;;;10.60;99.90;;;;;;5135400;27;20389;-64
2023/01/13 10:56:16;;;;;;;;;;;10.50;99.90;;;;;;5125530;27;20022;-64
2023/01/13 10:58:43;;;;;;;;;;;10.80;99.90;;;;;;5094118;28;20407;-64
2023/01/13 11:01:18;;;;;;;;;;;10.90;99.90;;;;;;5093762;28;20007;-64
2023/01/13 11:03:47;;;;;;;;;;;11.20;99.90;;;;;;5094387;28;19924;-64
2023/01/13 11:06:23;;;;;;;;;;;11.50;99.90;;;;;;5094197;28;19966;-64
2023/01/13 11:08:53;;;;;;;;;;;11.80;99.90;;;;;;5094039;28;19934;-64
2023/01/13 11:11:26;;;;;;;;;;;11.90;99.90;;;;;;5093316;28;20031;-64
2023/01/13 11:16:41;;;;;;;;;;;12.10;99.90;;;;;;5093786;28;20034;-64
2023/01/13 11:19:22;;;;;;;;;;;12.50;99.90;;;;;;5093936;28;20507;-64
2023/01/13 11:21:54;;;;;;;;;;;12.50;99.90;;;;;;5093408;28;20430;-64
2023/01/13 11:24:35;;;;;;;;;;;12.60;99.90;;;;;;5097857;27;20355;-64
2023/01/13 11:27:06;;;;;;;;;;;12.90;99.90;;;;;;5111081;27;19974;-65
2023/01/13 11:29:37;;;;;;;;;;;13.10;99.90;;;;;;5112924;28;19984;-64
2023/01/13 11:32:10;;;;;;;;;;;13.40;99.90;;;;;;5114491;28;19947;-65
2023/01/13 11:34:40;;;;;;;;;;;13.40;99.90;;;;;;5114034;28;19966;-65
2023/01/13 11:37:14;;;;;;;;;;;13.50;99.90;;;;;;5113988;28;19923;-64
2023/01/13 11:39:47;;;;;;;;;;;13.50;99.90;;;;;;5112921;28;19928;-64
2023/01/13 11:42:22;;;;;;;;;;;13.70;99.90;;;;;;5114147;28;20042;-64
2023/01/13 11:44:56;;;;;;;;;;;14.00;99.90;;;;;;5113969;28;19924;-64
2023/01/13 11:47:24;;;;;;;;;;;14.20;99.90;;;;;;5113922;28;19930;-64
2023/01/13 11:49:52;;;;;;;;;;;14.10;99.90;;;;;;5112915;28;20014;-64
2023/01/13 11:52:23;;;;;;;;;;;14.00;99.90;;;;;;5113939;28;20027;-64
2023/01/13 11:55:06;;;;;;;;;;;14.10;99.90;;;;;;5113959;28;20319;-64
2023/01/13 11:57:41;;;;;;;;;;;14.00;99.90;;;;;;5123861;27;20022;-64
2023/01/13 12:00:23;;;;;;;;;;;13.30;99.90;;;;;;5133493;27;19924;-64
2023/01/13 12:02:53;;;;;;;;;;;12.70;99.90;;;;;;5134387;27;20022;-64
2023/01/13 12:05:26;;;;;;;;;;;12.40;99.90;;;;;;5134245;27;19923;-63
2023/01/13 12:08:02;;;;;;;;;;;12.10;99.90;;;;;;5134282;27;19930;-63
2023/01/13 12:10:42;;;;;;;;;;;11.50;99.90;;;;;;5133085;27;19927;-64
2023/01/13 12:13:14;;;;;;;;;;;11.20;99.90;;;;;;5133873;27;20407;-64
2023/01/13 12:15:56;;;;;;;;;;;11.00;99.90;;;;;;5133298;27;21331;-63
2023/01/13 12:18:40;;;;;;;;;;;11.00;99.90;;;;;;5133697;27;19990;-64
2023/01/13 12:21:19;;;;;;;;;;;10.90;99.90;;;;;;5133187;27;19972;-64
2023/01/13 12:23:52;;;;;;;;;;;10.70;99.90;;;;;;5133639;27;20018;-64
2023/01/13 12:26:19;;;;;;;;;;;10.80;99.90;;;;;;5189281;22;20011;-67
2023/01/13 12:28:49;;;;;;;;;;;10.90;99.90;;;;;;5067810;28;20019;-67
2023/01/13 12:31:17;;;;;;;;;;;11.10;99.90;;;;;;5052057;28;19929;-67
2023/01/13 12:33:54;;;;;;;;;;;11.10;99.90;;;;;;5052347;28;19928;-68
2023/01/13 12:36:26;;;;;;;;;;;11.20;99.90;;;;;;5052626;28;19925;-67
2023/01/13 12:38:57;;;;;;;;;;;11.30;99.90;;;;;;5052237;28;20427;-67
2023/01/13 12:44:15;;;;;;;;;;;11.50;99.90;;;;;;5051640;28;19931;-67
2023/01/13 12:44:26;;;;;;;;;;;11.60;99.90;;;;;;5052049;28;19972;-67
2023/01/13 12:46:55;;;;;;;;;;;11.50;99.90;;;;;;5052178;28;19979;-68
2023/01/13 12:49:25;;;;;;;;;;;11.60;99.90;;;;;;5052509;28;19925;-67
2023/01/13 12:52:13;;;;;;;;;;;11.50;99.90;;;;;;5051605;28;19975;-67
2023/01/13 12:54:59;;;;;;;;;;;11.40;99.90;;;;;;5051961;28;20023;-67
2023/01/13 12:57:29;;;;;;;;;;;11.40;99.90;;;;;;5053463;28;20149;-67
2023/01/13 13:00:13;;;;;;;;;;;11.30;99.90;;;;;;5071332;28;20019;-67
2023/01/13 13:02:41;;;;;;;;;;;11.20;99.90;;;;;;5071750;28;19924;-67
2023/01/13 13:05:27;;;;;;;;;;;10.90;99.90;;;;;;5071896;28;19925;-67
2023/01/13 13:08:04;;;;;;;;;;;10.80;99.90;;;;;;5071992;28;20022;-67
2023/01/13 13:10:34;;;;;;;;;;;10.80;99.90;;;;;;5070227;28;19924;-67
2023/01/13 13:13:17;;;;;;;;;;;10.70;99.90;;;;;;5071717;28;19930;-67
2023/01/13 13:15:46;;;;;;;;;;;10.60;99.90;;;;;;5071596;28;19959;-67
2023/01/13 13:18:25;;;;;;;;;;;10.40;99.90;;;;;;5071750;28;19925;-67
2023/01/13 13:20:58;;;;;;;;;;;10.40;99.90;;;;;;5071096;28;19970;-67
2023/01/13 13:23:42;;;;;;;;;;;10.20;99.90;;;;;;5071825;28;19929;-67
2023/01/13 13:26:16;;;;;;;;;;;10.20;99.90;;;;;;5071354;28;20436;-67
2023/01/13 13:28:48;;;;;;;;;;;10.10;99.90;;;;;;5064098;28;19925;-67
2023/01/13 13:31:21;;;;;;;;;;;10.00;99.90;;;;;;5071235;28;19979;-68
2023/01/13 13:33:53;;;;;;;;;;;9.90;99.90;;;;;;5071989;28;19925;-68
2023/01/13 13:36:31;;;;;;;;;;;9.70;99.90;;;;;;5071474;28;20397;-68
2023/01/13 13:47:36;;;;;;;;;;;8.70;99.90;;;;;;5071635;28;19948;-67
2023/01/13 13:50:07;;;;;;;;;;;8.60;99.90;;;;;;5070816;28;19967;-67
2023/01/13 13:52:38;;;;;;;;;;;8.60;99.90;;;;;;5071257;28;19931;-68
2023/01/13 13:55:09;;;;;;;;;;;8.70;99.90;;;;;;5071039;28;19951;-68
2023/01/13 13:57:37;;;;;;;;;;;8.70;99.90;;;;;;5067803;28;19924;-68
2023/01/13 14:00:18;;;;;;;;;;;8.70;99.90;;;;;;5050564;28;20337;-67
2023/01/13 14:02:47;;;;;;;;;;;8.70;99.90;;;;;;5051269;28;20024;-67
2023/01/13 14:05:18;;;;;;;;;;;8.80;99.90;;;;;;5050930;28;19931;-68
2023/01/13 14:07:47;;;;;;;;;;;8.80;99.90;;;;;;5051450;28;19924;-68
2023/01/13 14:10:18;;;;;;;;;;;8.70;99.90;;;;;;5050409;28;19935;-68
2023/01/13 14:12:45;;;;;;;;;;;8.70;99.90;;;;;;5051080;28;20023;-68
2023/01/13 14:15:25;;;;;;;;;;;8.60;99.90;;;;;;5050965;28;20301;-68
2023/01/13 14:17:53;;;;;;;;;;;8.70;99.90;;;;;;5083310;28;20340;-67
2023/01/13 14:20:21;;;;;;;;;;;8.60;99.90;;;;;;5050353;28;19931;-68
2023/01/13 14:22:50;;;;;;;;;;;8.60;99.90;;;;;;5054924;28;20405;-68
2023/01/13 14:25:26;;;;;;;;;;;8.50;99.90;;;;;;5056695;28;20033;-68
2023/01/13 14:27:54;;;;;;;;;;;8.50;99.90;;;;;;5068953;28;20044;-67
2023/01/13 14:30:22;;;;;;;;;;;8.50;99.90;;;;;;5054114;28;19935;-68
2023/01/13 14:32:52;;;;;;;;;;;8.50;99.90;;;;;;5054758;28;19931;-68
2023/01/13 14:35:20;;;;;;;;;;;8.50;99.90;;;;;;5054369;28;19925;-68
2023/01/13 14:37:49;;;;;;;;;;;8.40;99.90;;;;;;5054626;28;20468;-68
2023/01/13 14:40:35;;;;;;;;;;;8.30;99.90;;;;;;5053908;28;19924;-67
2023/01/13 14:43:04;;;;;;;;;;;8.30;99.90;;;;;;5054640;28;19925;-68
2023/01/13 14:45:32;;;;;;;;;;;8.30;99.90;;;;;;5054288;28;19966;-67
2023/01/13 14:48:01;;;;;;;;;;;8.40;99.90;;;;;;5054457;28;19959;-67
2023/01/13 14:50:32;;;;;;;;;;;8.40;99.90;;;;;;5053810;28;19935;-67
2023/01/13 14:53:00;;;;;;;;;;;8.40;99.90;;;;;;5054494;28;19991;-67
2023/01/13 14:55:29;;;;;;;;;;;8.50;99.90;;;;;;5057891;28;20385;-67
2023/01/13 14:58:15;;;;;;;;;;;8.50;99.90;;;;;;5068274;28;20477;-67
2023/01/13 15:00:43;;;;;;;;;;;8.40;99.90;;;;;;5053522;28;19931;-68
2023/01/13 15:03:13;;;;;;;;;;;8.40;99.90;;;;;;5054343;28;19931;-67
2023/01/13 15:05:47;;;;;;;;;;;8.40;99.90;;;;;;5053864;28;19924;-68
2023/01/13 15:08:22;;;;;;;;;;;8.40;99.90;;;;;;5054156;28;20015;-68
2023/01/13 15:10:51;;;;;;;;;;;8.40;99.90;;;;;;5053274;28;19924;-67
2023/01/13 15:13:24;;;;;;;;;;;8.50;99.90;;;;;;5053912;28;19978;-68
2023/01/13 15:15:54;;;;;;;;;;;8.50;99.90;;;;;;5053846;28;19928;-68
2023/01/13 15:18:23;;;;;;;;;;;8.50;99.90;;;;;;5053781;28;19924;-68
2023/01/13 15:20:51;;;;;;;;;;;8.50;99.90;;;;;;5053119;28;19925;-68
2023/01/13 15:23:19;;;;;;;;;;;8.50;99.90;;;;;;5053913;28;19929;-68
2023/01/13 15:25:47;;;;;;;;;;;8.50;99.90;;;;;;5059871;28;20142;-68
2023/01/13 15:28:17;;;;;;;;;;;8.40;99.90;;;;;;5065122;28;20023;-68
2023/01/13 15:30:45;;;;;;;;;;;8.40;99.90;;;;;;5052995;28;19924;-67
2023/01/13 15:33:13;;;;;;;;;;;8.40;99.90;;;;;;5052610;28;19931;-67
2023/01/13 15:35:43;;;;;;;;;;;8.40;99.90;;;;;;5053439;28;19929;-66
2023/01/13 15:38:12;;;;;;;;;;;8.40;99.90;;;;;;5053509;28;20472;-66
2023/01/13 15:40:39;;;;;;;;;;;8.40;99.90;;;;;;5052968;28;19982;-66